FYWB

Details ICAO FYWB (WVB)
Name WALVIS BAY
Region Namibia
Timezone Africa/Windhoek (UTC+2.0)
Plans Departing 10
Arriving 13
Stats Elevation 299 ft / 91 m (AMSL)
Location -22.979889° 14.645331°
Runways 1
Magnetic Variation 12.917° W
Sunrise 2017-12-18 04:13:04 UTC / 2017-12-18 06:13:04 Local
Sunset 2017-12-18 17:45:40 UTC / 2017-12-18 19:45:40 Local
Advertisement - Login to hide

Runways

ID Width Length Bearing (true) Bearing (mag) Surface Threshold Offset Overrun Length
09 98 ft / 30 m 6,984 ft / 2,129 m 71.49° 84.41° Asphalt 0 ft / 0 m 70 ft / 21 m
27 98 ft / 30 m 6,984 ft / 2,129 m 251.48° 264.40° Asphalt 0 ft / 0 m 70 ft / 21 m

Map

Weather


0- 5 10 15 20 25 30 35+ Temperature / ° C

Clouds and Precipitation
Forecast for 2017-12-19 00:00 UTC. Updated 2 hours ago

Ground ~20,000 ft ~40,000 ft Winds

METAR

FYWB 182000Z AUTO 27001KT //// 15/11 Q1012

TAF

Not found

Frequencies

Tower 122.50 MHz TWR
Approach 122.50 MHz APP
Warning: Do not use this data for real-world aviation or navigation. No guarantee of current accuracy is given.